OOMS/MCT METAR and TAF weather

Enter ICAO airport designator
Station Type Date Time Source
OOMS METAR 2022/09/26 07:50 UTC NOAA

OOMS 260750Z 02009KT 8000 NSC 31/28 Q1007 NOSIG


Station Type Date Time Source
OOMS Decoded METAR 2022/09/26 07:50 UTC NOAA

Seeb, International Airport, Oman (OOMS) 23-35N 058-17E 17M
Sep 26, 2022 - 03:50 AM EDT / 2022.09.26 0750 UTC
Wind: from the NNE (020 degrees) at 10 MPH (9 KT):0
Visibility: 4 mile(s):0
Temperature: 87 F (31 C)
Heat index: 105.3 F (40.7 C):1
Dew Point: 82 F (28 C)
Relative Humidity: 84%
Pressure (altimeter): 29.74 in. Hg (1007 hPa)
ob: OOMS 260750Z 02009KT 8000 NSC 31/28 Q1007 NOSIG
cycle: 8

Station Type Date Time Source
OOMS TAF 2022/09/26 06:03 UTC NOAA

TAF OOMS 260500Z 2606/2712 03012KT 8000 NSC
BECMG 2616/2618 VRB02KT PROB30
TEMPO 2622/2703 4500 BR SCT010
BECMG 2706/2708 03012KT

Example: see airport list